createdAt,value
2018-10-06T00:00:14.439Z,16.44
2018-10-06T00:01:14.466Z,15.88
2018-10-06T00:02:14.494Z,15.88
2018-10-06T00:03:14.499Z,16.33
2018-10-06T00:04:14.528Z,16.35
2018-10-06T00:05:14.543Z,15.99
2018-10-06T00:06:14.569Z,16.22
2018-10-06T00:07:14.586Z,16.50
2018-10-06T00:08:14.602Z,16.35
2018-10-06T00:09:14.625Z,16.26
2018-10-06T00:10:14.649Z,16.33
2018-10-06T00:11:14.681Z,16.22
2018-10-06T00:12:14.691Z,16.55
2018-10-06T00:13:14.705Z,16.34
2018-10-06T00:14:14.742Z,16.23
2018-10-06T00:15:14.751Z,15.92
2018-10-06T00:16:14.773Z,15.81
2018-10-06T00:17:14.787Z,15.82
2018-10-06T00:18:14.816Z,15.68
2018-10-06T00:19:14.843Z,15.46
2018-10-06T00:20:14.854Z,15.51
2018-10-06T00:21:14.875Z,15.52
2018-10-06T00:22:14.895Z,15.76
2018-10-06T00:23:14.916Z,15.89
2018-10-06T00:24:14.934Z,16.04
2018-10-06T00:25:15.018Z,15.96
2018-10-06T00:26:14.972Z,16.44
2018-10-06T00:27:15.007Z,16.26
2018-10-06T00:28:15.025Z,16.25
2018-10-06T00:29:15.045Z,16.06
2018-10-06T00:30:15.058Z,15.92
2018-10-06T00:32:15.110Z,15.89
2018-10-06T00:33:15.119Z,16.40
2018-10-06T00:34:15.136Z,16.50
2018-10-06T00:35:15.160Z,16.33
2018-10-06T00:36:15.253Z,16.50
2018-10-06T00:37:15.205Z,16.35
2018-10-06T00:39:15.246Z,16.33
2018-10-06T00:40:15.261Z,16.14
2018-10-06T00:41:15.289Z,16.00
2018-10-06T00:42:15.302Z,16.03
2018-10-06T00:43:15.334Z,15.72
2018-10-06T00:44:15.341Z,15.84
2018-10-06T00:45:15.358Z,16.26
2018-10-06T00:46:15.386Z,16.48
2018-10-06T00:47:15.484Z,15.96
2018-10-06T00:48:15.430Z,15.72
2018-10-06T00:49:15.555Z,15.82
2018-10-06T00:50:15.471Z,15.70
2018-10-06T00:51:15.494Z,15.82
2018-10-06T00:52:15.515Z,15.93
2018-10-06T00:53:15.533Z,15.76
2018-10-06T00:54:15.545Z,15.81
2018-10-06T00:55:15.588Z,15.94
2018-10-06T00:56:15.596Z,15.78
2018-10-06T00:57:15.615Z,15.81
2018-10-06T00:58:15.633Z,15.92
2018-10-06T00:59:15.676Z,16.06
2018-10-06T01:00:15.680Z,16.25
2018-10-06T01:01:15.705Z,15.93
2018-10-06T01:02:15.716Z,15.82
2018-10-06T01:03:15.741Z,15.86
2018-10-06T01:04:15.751Z,15.78
2018-10-06T01:05:15.774Z,15.84
2018-10-06T01:06:15.800Z,15.94
2018-10-06T01:07:15.820Z,15.93
2018-10-06T01:08:15.843Z,15.84
2018-10-06T01:09:15.853Z,15.78
2018-10-06T01:10:15.879Z,15.57
2018-10-06T01:11:15.905Z,15.66
2018-10-06T01:12:15.928Z,15.54
2018-10-06T01:13:15.993Z,15.76
2018-10-06T01:14:15.961Z,16.26
2018-10-06T01:15:15.985Z,16.22
2018-10-06T01:16:15.999Z,16.15
2018-10-06T01:17:16.066Z,16.23
2018-10-06T01:18:16.073Z,16.37
2018-10-06T01:19:16.060Z,16.23
2018-10-06T01:20:16.085Z,16.03
2018-10-06T01:21:16.111Z,15.74
2018-10-06T01:22:16.127Z,15.68
2018-10-06T01:23:16.186Z,15.68
2018-10-06T01:24:16.163Z,15.54
2018-10-06T01:25:16.180Z,15.66
2018-10-06T01:26:16.213Z,15.82
2018-10-06T01:27:16.234Z,16.12
2018-10-06T01:28:16.258Z,16.23
2018-10-06T01:29:16.261Z,16.06
2018-10-06T01:30:16.335Z,15.86
2018-10-06T01:31:16.308Z,15.92
2018-10-06T01:32:16.317Z,15.92
2018-10-06T01:33:16.344Z,15.99
2018-10-06T01:34:16.371Z,15.86
2018-10-06T01:35:16.380Z,15.49
2018-10-06T01:36:16.407Z,15.35
2018-10-06T01:37:16.427Z,15.35
2018-10-06T01:38:16.462Z,15.20
2018-10-06T01:39:16.472Z,15.38
2018-10-06T01:40:16.487Z,15.46
2018-10-06T01:41:16.546Z,15.57
2018-10-06T01:42:16.530Z,15.99
2018-10-06T01:43:16.542Z,15.92
2018-10-06T01:44:16.565Z,15.88
2018-10-06T01:45:16.590Z,15.89
2018-10-06T01:46:16.613Z,15.79
2018-10-06T01:47:16.639Z,15.75
2018-10-06T01:48:16.650Z,15.49
2018-10-06T01:49:16.667Z,15.51
2018-10-06T01:50:16.691Z,15.54
2018-10-06T01:51:16.716Z,15.86
2018-10-06T01:52:16.844Z,15.51
2018-10-06T01:53:16.754Z,15.67
2018-10-06T01:54:16.781Z,15.99
2018-10-06T01:55:16.792Z,16.06
2018-10-06T01:56:16.810Z,15.92
2018-10-06T01:57:16.834Z,15.85
2018-10-06T01:58:16.868Z,15.39
2018-10-06T01:59:16.882Z,15.23
2018-10-06T02:00:16.891Z,15.24
2018-10-06T02:01:16.909Z,15.48
2018-10-06T02:02:16.945Z,15.85
2018-10-06T02:03:16.945Z,16.15
2018-10-06T02:04:16.974Z,16.23
2018-10-06T02:05:17.021Z,15.79
2018-10-06T02:06:17.022Z,15.66
2018-10-06T02:07:17.032Z,15.51
2018-10-06T02:08:17.064Z,15.49
2018-10-06T02:09:17.084Z,15.60
2018-10-06T02:10:17.089Z,15.59
2018-10-06T02:11:17.116Z,15.60
2018-10-06T02:12:17.136Z,15.30
2018-10-06T02:13:17.168Z,15.30
2018-10-06T02:14:17.187Z,15.54
2018-10-06T02:15:17.192Z,15.59
2018-10-06T02:16:17.208Z,15.66
2018-10-06T02:17:17.237Z,15.79
2018-10-06T02:18:17.261Z,15.75
2018-10-06T02:19:17.290Z,15.66
2018-10-06T02:20:17.315Z,15.23
2018-10-06T02:21:17.328Z,15.49
2018-10-06T02:22:17.332Z,15.56
2018-10-06T02:23:17.353Z,15.52
2018-10-06T02:24:17.371Z,15.63
2018-10-06T02:25:17.401Z,15.57
2018-10-06T02:26:17.414Z,15.82
2018-10-06T02:27:17.429Z,15.93
2018-10-06T02:28:17.452Z,16.14
2018-10-06T02:29:17.480Z,16.33
2018-10-06T02:30:17.619Z,16.12
2018-10-06T02:31:17.580Z,15.70
2018-10-06T02:32:17.528Z,15.63
2018-10-06T02:33:17.577Z,15.76
2018-10-06T02:34:17.575Z,15.92
2018-10-06T02:35:17.598Z,15.92
2018-10-06T02:36:17.641Z,15.72
2018-10-06T02:37:17.636Z,15.41
2018-10-06T02:38:17.657Z,15.41
2018-10-06T02:39:17.675Z,15.35
2018-10-06T02:40:17.700Z,15.48
2018-10-06T02:41:17.714Z,15.61
2018-10-06T02:42:17.738Z,15.59
2018-10-06T02:43:17.756Z,15.76
2018-10-06T02:44:17.796Z,15.54
2018-10-06T02:45:17.801Z,15.60
2018-10-06T02:46:17.818Z,15.23
2018-10-06T02:47:17.838Z,15.28
2018-10-06T02:48:17.861Z,15.42
2018-10-06T02:49:17.875Z,15.21
2018-10-06T02:50:17.897Z,14.94
2018-10-06T02:51:17.916Z,14.86
2018-10-06T02:52:17.938Z,14.95
2018-10-06T02:53:17.955Z,15.12
2018-10-06T02:54:17.975Z,15.09
2018-10-06T02:55:17.991Z,15.23
2018-10-06T02:56:18.024Z,15.35
2018-10-06T02:57:18.043Z,15.17
2018-10-06T02:58:18.058Z,14.94
2018-10-06T02:59:18.078Z,15.19
2018-10-06T03:00:18.100Z,15.26
2018-10-06T03:01:18.129Z,15.09
2018-10-06T03:02:18.139Z,14.93
2018-10-06T03:03:18.166Z,15.24
2018-10-06T03:04:18.175Z,15.09
2018-10-06T03:05:18.195Z,15.35
2018-10-06T03:06:18.213Z,15.59
2018-10-06T03:07:18.235Z,15.59
2018-10-06T03:08:18.260Z,15.66
2018-10-06T03:09:18.311Z,15.93
2018-10-06T03:10:18.301Z,15.81
2018-10-06T03:11:18.321Z,15.61
2018-10-06T03:12:18.373Z,15.31
2018-10-06T03:13:18.360Z,15.51
2018-10-06T03:14:18.401Z,15.85
2018-10-06T03:15:18.396Z,16.09
2018-10-06T03:16:18.417Z,16.20
2018-10-06T03:17:18.428Z,16.11
2018-10-06T03:18:18.462Z,15.76
2018-10-06T03:19:18.476Z,15.94
2018-10-06T03:20:18.496Z,15.99
2018-10-06T03:21:18.516Z,15.85
2018-10-06T03:22:18.537Z,15.68
2018-10-06T03:23:18.581Z,15.72
2018-10-06T03:24:18.583Z,15.48
2018-10-06T03:25:18.593Z,15.54
2018-10-06T03:26:18.609Z,15.23
2018-10-06T03:27:18.641Z,15.11
2018-10-06T03:28:18.669Z,15.17
2018-10-06T03:29:18.675Z,15.03
2018-10-06T03:30:18.700Z,15.27
2018-10-06T03:31:18.719Z,15.15
2018-10-06T03:32:18.734Z,15.24
2018-10-06T03:33:18.753Z,15.26
2018-10-06T03:34:18.773Z,15.01
2018-10-06T03:35:18.794Z,14.94
2018-10-06T03:36:18.812Z,14.75
2018-10-06T03:37:18.880Z,14.74
2018-10-06T03:38:18.871Z,15.08
2018-10-06T03:39:18.927Z,15.24
2018-10-06T03:40:18.893Z,15.45
2018-10-06T03:41:18.923Z,15.61
2018-10-06T03:42:18.928Z,15.57
2018-10-06T03:43:18.964Z,15.51
2018-10-06T03:44:18.984Z,15.39
2018-10-06T03:45:18.993Z,15.35
2018-10-06T03:46:19.022Z,15.70
2018-10-06T03:47:19.025Z,15.46
2018-10-06T03:48:19.055Z,15.48
2018-10-06T03:49:19.071Z,15.84
2018-10-06T03:50:19.096Z,15.64
2018-10-06T03:51:19.116Z,15.68
2018-10-06T03:52:19.128Z,15.66
2018-10-06T03:53:19.151Z,15.61
2018-10-06T03:54:19.179Z,15.66
2018-10-06T03:55:19.198Z,15.76
2018-10-06T03:56:19.207Z,15.94
2018-10-06T03:57:19.244Z,15.76
2018-10-06T03:58:19.258Z,15.76
2018-10-06T03:59:19.279Z,15.43
2018-10-06T04:00:19.304Z,15.27
2018-10-06T04:01:19.310Z,15.06
2018-10-06T04:02:19.332Z,14.81
2018-10-06T04:03:19.354Z,14.72
2018-10-06T04:04:19.402Z,14.71
2018-10-06T04:05:19.407Z,14.83
2018-10-06T04:06:19.408Z,14.81
2018-10-06T04:07:19.425Z,15.33
2018-10-06T04:08:19.444Z,15.38
2018-10-06T04:09:19.469Z,14.93
2018-10-06T04:10:19.476Z,14.91
2018-10-06T04:11:19.509Z,14.86
2018-10-06T04:12:19.523Z,14.93
2018-10-06T04:13:19.545Z,14.87
2018-10-06T04:14:19.568Z,15.11
2018-10-06T04:15:19.620Z,15.35
2018-10-06T04:16:19.607Z,15.42
2018-10-06T04:17:19.620Z,15.06
2018-10-06T04:18:19.647Z,14.78
2018-10-06T04:19:19.660Z,14.87
2018-10-06T04:20:19.683Z,15.12
2018-10-06T04:21:19.704Z,14.81
2018-10-06T04:22:19.731Z,14.74
2018-10-06T04:23:19.739Z,14.78
2018-10-06T04:24:19.763Z,14.81
2018-10-06T04:25:19.789Z,15.13
2018-10-06T04:26:19.803Z,14.84
2018-10-06T04:27:19.830Z,14.74
2018-10-06T04:28:19.879Z,14.74
2018-10-06T04:29:19.861Z,14.81
2018-10-06T04:30:19.882Z,15.05
2018-10-06T04:31:19.912Z,15.01
2018-10-06T04:32:19.922Z,15.35
2018-10-06T04:33:19.942Z,15.02
2018-10-06T04:34:19.963Z,15.15
2018-10-06T04:35:19.978Z,15.49
2018-10-06T04:36:20.021Z,15.60
2018-10-06T04:37:20.065Z,15.74
2018-10-06T04:38:20.039Z,15.56
2018-10-06T04:39:20.185Z,15.46
2018-10-06T04:40:20.083Z,15.59
2018-10-06T04:41:20.092Z,15.49
2018-10-06T04:42:20.111Z,15.31
2018-10-06T04:44:20.153Z,15.43
2018-10-06T04:45:20.170Z,15.42
2018-10-06T04:46:20.205Z,15.48
2018-10-06T04:47:20.221Z,15.26
2018-10-06T04:48:20.233Z,15.39
2018-10-06T04:49:20.247Z,15.48
2018-10-06T04:50:20.282Z,15.41
2018-10-06T04:51:20.292Z,15.17
2018-10-06T04:52:20.333Z,15.09
2018-10-06T04:53:20.442Z,15.39
2018-10-06T04:54:20.374Z,15.45
2018-10-06T04:55:20.374Z,15.24
2018-10-06T04:56:20.446Z,15.09
2018-10-06T04:57:20.423Z,15.17
2018-10-06T04:58:20.437Z,15.46
2018-10-06T04:59:20.456Z,15.27
2018-10-06T05:00:20.468Z,15.13
2018-10-06T05:01:20.490Z,14.74
2018-10-06T05:02:20.500Z,14.75
2018-10-06T05:03:20.571Z,14.83
2018-10-06T05:04:20.545Z,14.87
2018-10-06T05:05:20.575Z,15.02
2018-10-06T05:06:20.593Z,15.17
2018-10-06T05:07:20.640Z,14.95
2018-10-06T05:08:20.621Z,15.31
2018-10-06T05:09:20.652Z,15.20
2018-10-06T05:10:20.661Z,14.88
2018-10-06T05:11:20.689Z,15.21
2018-10-06T05:12:20.702Z,15.08
2018-10-06T05:13:20.721Z,15.13
2018-10-06T05:14:20.742Z,14.94
2018-10-06T05:15:20.769Z,14.75
2018-10-06T05:16:20.791Z,15.05
2018-10-06T05:18:20.934Z,14.62
2018-10-06T05:19:20.845Z,14.69
2018-10-06T05:20:20.959Z,14.69
2018-10-06T05:21:20.880Z,15.02
2018-10-06T05:22:20.897Z,15.02
2018-10-06T05:23:20.928Z,15.20
2018-10-06T05:24:20.935Z,15.17
2018-10-06T05:25:20.958Z,14.91
2018-10-06T05:26:20.983Z,15.03
2018-10-06T05:27:21.005Z,14.90
2018-10-06T05:28:21.024Z,14.93
2018-10-06T05:29:21.042Z,14.93
2018-10-06T05:30:21.059Z,14.95
2018-10-06T05:31:21.144Z,14.67
2018-10-06T05:32:21.093Z,14.94
2018-10-06T05:33:21.127Z,14.84
2018-10-06T05:34:21.137Z,14.95
2018-10-06T05:35:21.155Z,15.13
2018-10-06T05:36:21.180Z,15.06
2018-10-06T05:37:21.194Z,15.20
2018-10-06T05:38:21.215Z,14.99
2018-10-06T05:39:21.244Z,14.78
2018-10-06T05:40:21.271Z,14.81
2018-10-06T05:41:21.282Z,14.75
2018-10-06T05:42:21.308Z,14.60
2018-10-06T05:43:21.324Z,14.75
2018-10-06T05:44:21.340Z,14.87
2018-10-06T05:45:21.356Z,14.75
2018-10-06T05:46:21.402Z,14.83
2018-10-06T05:47:21.388Z,14.80
2018-10-06T05:48:21.413Z,14.87
2018-10-06T05:49:21.427Z,14.74
2018-10-06T05:50:21.452Z,14.78
2018-10-06T05:51:21.468Z,15.12
2018-10-06T05:52:21.497Z,15.42
2018-10-06T05:53:21.511Z,15.03
2018-10-06T05:54:21.534Z,14.98
2018-10-06T05:55:21.590Z,14.91
2018-10-06T05:56:21.561Z,15.19
2018-10-06T05:57:21.582Z,15.28
2018-10-06T05:58:21.601Z,14.94
2018-10-06T05:59:21.654Z,15.02
2018-10-06T06:00:21.648Z,15.35
2018-10-06T06:01:21.662Z,15.46
2018-10-06T06:02:21.740Z,15.42
2018-10-06T06:03:21.705Z,15.54
2018-10-06T06:04:21.720Z,15.33
2018-10-06T06:05:21.756Z,15.36
2018-10-06T06:06:21.772Z,15.23
2018-10-06T06:07:21.784Z,14.94
2018-10-06T06:08:21.834Z,15.08
2018-10-06T06:09:21.899Z,14.93
2018-10-06T06:10:21.868Z,15.15
2018-10-06T06:11:21.860Z,15.26
2018-10-06T06:12:21.876Z,15.39
2018-10-06T06:13:21.893Z,15.35
2018-10-06T06:14:21.920Z,15.09
2018-10-06T06:15:21.937Z,15.23
2018-10-06T06:16:21.959Z,15.11
2018-10-06T06:17:21.972Z,15.03
2018-10-06T06:19:22.011Z,14.93
2018-10-06T06:20:22.036Z,15.06
2018-10-06T06:21:22.045Z,15.17
2018-10-06T06:22:22.090Z,15.03
2018-10-06T06:23:22.092Z,15.20
2018-10-06T06:24:22.122Z,15.08
2018-10-06T06:25:22.131Z,15.02
2018-10-06T06:26:22.161Z,15.03
2018-10-06T06:27:22.176Z,15.21
2018-10-06T06:28:22.191Z,15.11
2018-10-06T06:29:22.210Z,15.09
2018-10-06T06:30:22.226Z,15.02
2018-10-06T06:31:22.305Z,14.84
2018-10-06T06:32:22.304Z,14.83
2018-10-06T06:33:22.288Z,15.17
2018-10-06T06:34:22.308Z,15.56
2018-10-06T06:35:22.327Z,15.48
2018-10-06T06:36:22.369Z,15.64
2018-10-06T06:37:22.389Z,15.82
2018-10-06T06:38:22.478Z,15.64
2018-10-06T06:39:22.400Z,15.46
2018-10-06T06:40:22.423Z,15.52
2018-10-06T06:41:22.460Z,15.43
2018-10-06T06:42:22.542Z,15.63
2018-10-06T06:43:22.503Z,15.61
2018-10-06T06:44:22.611Z,15.66
2018-10-06T06:45:22.524Z,15.78
2018-10-06T06:46:22.537Z,15.36
2018-10-06T06:47:22.566Z,15.49
2018-10-06T06:48:22.582Z,15.51
2018-10-06T06:49:22.600Z,15.68
2018-10-06T06:50:22.642Z,15.85
2018-10-06T06:51:22.711Z,15.70
2018-10-06T06:52:22.681Z,15.68
2018-10-06T06:53:22.681Z,15.81
2018-10-06T06:54:22.697Z,15.60
2018-10-06T06:55:22.729Z,15.74
2018-10-06T06:56:22.743Z,15.93
2018-10-06T06:57:22.756Z,15.75
2018-10-06T06:58:22.790Z,15.59
2018-10-06T06:59:22.789Z,15.54
2018-10-06T07:00:22.829Z,15.46
2018-10-06T07:01:22.842Z,15.54
2018-10-06T07:02:22.916Z,15.59
2018-10-06T07:03:22.868Z,15.54
2018-10-06T07:04:22.921Z,15.45
2018-10-06T07:05:22.926Z,15.56
2018-10-06T07:06:22.935Z,15.75
2018-10-06T07:07:22.952Z,15.70
2018-10-06T07:08:22.973Z,15.57
2018-10-06T07:09:22.984Z,15.70
2018-10-06T07:10:23.017Z,15.79
2018-10-06T07:11:23.041Z,15.67
2018-10-06T07:12:23.062Z,15.84
2018-10-06T07:13:23.072Z,15.70
2018-10-06T07:14:23.088Z,15.60
2018-10-06T07:15:23.146Z,15.75
2018-10-06T07:16:23.126Z,15.78
2018-10-06T07:17:23.144Z,15.93
2018-10-06T07:18:23.254Z,15.93
2018-10-06T07:19:23.220Z,15.99
2018-10-06T07:20:23.223Z,16.04
2018-10-06T07:21:23.232Z,16.04
2018-10-06T07:22:23.244Z,15.93
2018-10-06T07:23:23.273Z,15.84
2018-10-06T07:24:23.295Z,15.81
2018-10-06T07:25:23.345Z,15.85
2018-10-06T07:26:23.327Z,15.76
2018-10-06T07:27:23.350Z,15.85
2018-10-06T07:28:23.421Z,15.94
2018-10-06T07:29:23.382Z,15.86
2018-10-06T07:30:23.420Z,15.89
2018-10-06T07:31:23.430Z,15.99
2018-10-06T07:32:23.438Z,16.14
2018-10-06T07:33:23.464Z,16.22
2018-10-06T07:34:23.486Z,16.35
2018-10-06T07:35:23.509Z,16.34
2018-10-06T07:36:23.518Z,16.80
2018-10-06T07:37:23.542Z,17.57
2018-10-06T07:38:23.566Z,18.44
2018-10-06T07:39:23.579Z,18.76
2018-10-06T07:40:23.599Z,18.31
2018-10-06T07:41:23.618Z,17.57
2018-10-06T07:42:23.643Z,17.32
2018-10-06T07:43:23.710Z,17.11
2018-10-06T07:44:23.686Z,17.00
2018-10-06T07:45:23.699Z,16.98
2018-10-06T07:46:23.736Z,17.07
2018-10-06T07:47:23.741Z,16.96
2018-10-06T07:48:23.762Z,16.89
2018-10-06T07:49:23.786Z,16.90
2018-10-06T07:50:23.808Z,16.86
2018-10-06T07:51:23.823Z,16.85
2018-10-06T07:52:23.842Z,16.88
2018-10-06T07:53:23.863Z,16.85
2018-10-06T07:54:23.909Z,16.80
2018-10-06T07:55:23.919Z,16.92
2018-10-06T07:56:23.927Z,16.80
2018-10-06T07:57:23.943Z,16.98
2018-10-06T07:58:23.970Z,16.96
2018-10-06T07:59:24.023Z,17.00
2018-10-06T08:00:24.004Z,16.90
2018-10-06T08:01:24.048Z,16.93
2018-10-06T08:02:24.053Z,16.95
2018-10-06T08:03:24.126Z,16.98
2018-10-06T08:04:24.102Z,16.89
2018-10-06T08:05:24.114Z,16.90
2018-10-06T08:06:24.213Z,16.90
2018-10-06T08:07:24.151Z,17.04
2018-10-06T08:08:24.166Z,16.98
2018-10-06T08:09:24.183Z,16.96
2018-10-06T08:10:24.248Z,16.99
2018-10-06T08:11:24.227Z,16.98
2018-10-06T08:12:24.249Z,16.96
2018-10-06T08:13:24.277Z,17.03
2018-10-06T08:14:24.281Z,17.15
2018-10-06T08:15:24.309Z,17.30
2018-10-06T08:16:24.331Z,17.17
2018-10-06T08:17:24.350Z,17.20
2018-10-06T08:18:24.492Z,17.18
2018-10-06T08:19:24.392Z,17.30
2018-10-06T08:20:24.414Z,17.32
2018-10-06T08:21:24.435Z,17.28
2018-10-06T08:22:24.456Z,17.32
2018-10-06T08:23:24.471Z,17.33
2018-10-06T08:24:24.507Z,17.29
2018-10-06T08:25:24.521Z,17.32
2018-10-06T08:26:24.546Z,17.35
2018-10-06T08:27:24.564Z,17.36
2018-10-06T08:28:24.582Z,17.43
2018-10-06T08:29:24.591Z,17.44
2018-10-06T08:30:24.624Z,17.35
2018-10-06T08:31:24.671Z,17.30
2018-10-06T08:32:24.658Z,17.29
2018-10-06T08:33:24.679Z,17.33
2018-10-06T08:34:24.708Z,17.44
2018-10-06T08:35:24.714Z,17.33
2018-10-06T08:36:24.745Z,17.43
2018-10-06T08:37:24.763Z,17.36
2018-10-06T08:38:24.784Z,17.38
2018-10-06T08:39:24.817Z,17.44
2018-10-06T08:40:24.835Z,17.48
2018-10-06T08:41:24.838Z,17.47
2018-10-06T08:42:24.862Z,17.50
2018-10-06T08:43:24.886Z,17.55
2018-10-06T08:44:24.908Z,17.62
2018-10-06T08:45:24.929Z,17.54
2018-10-06T08:46:24.998Z,17.62
2018-10-06T08:47:24.969Z,17.63
2018-10-06T08:48:24.985Z,17.66
2018-10-06T08:49:25.010Z,17.62
2018-10-06T08:50:25.045Z,17.69
2018-10-06T08:51:25.053Z,17.87
2018-10-06T08:52:25.067Z,17.81
2018-10-06T08:53:25.092Z,17.81
2018-10-06T08:54:25.117Z,17.81
2018-10-06T08:55:25.133Z,17.81
2018-10-06T08:56:25.263Z,17.81
2018-10-06T08:57:25.225Z,17.85
2018-10-06T08:58:25.191Z,17.81
2018-10-06T08:59:25.229Z,17.73
2018-10-06T09:00:25.246Z,17.82
2018-10-06T09:01:25.271Z,17.78
2018-10-06T09:02:25.277Z,17.81
2018-10-06T09:03:25.301Z,17.78
2018-10-06T09:04:25.407Z,17.71
2018-10-06T09:05:25.339Z,17.85
2018-10-06T09:06:25.356Z,17.85
2018-10-06T09:07:25.385Z,17.81
2018-10-06T09:08:25.400Z,17.85
2018-10-06T09:09:25.421Z,17.84
2018-10-06T09:10:25.524Z,17.81
2018-10-06T09:11:25.468Z,17.79
2018-10-06T09:12:25.483Z,17.82
2018-10-06T09:13:25.505Z,17.78
2018-10-06T09:14:25.533Z,17.92
2018-10-06T09:15:25.544Z,17.95
2018-10-06T09:16:25.577Z,17.94
2018-10-06T09:17:25.589Z,17.89
2018-10-06T09:18:25.617Z,17.88
2018-10-06T09:19:25.666Z,17.92
2018-10-06T09:20:25.657Z,17.99
2018-10-06T09:21:25.702Z,17.97
2018-10-06T09:22:25.734Z,18.09
2018-10-06T09:23:25.721Z,17.95
2018-10-06T09:24:25.763Z,18.02
2018-10-06T09:25:25.754Z,17.95
2018-10-06T09:26:25.778Z,18.04
2018-10-06T09:27:25.794Z,18.03
2018-10-06T09:28:25.918Z,18.03
2018-10-06T09:29:25.848Z,17.95
2018-10-06T09:30:25.856Z,18.00
2018-10-06T09:31:25.881Z,18.03
2018-10-06T09:32:25.903Z,17.97
2018-10-06T09:33:25.943Z,17.97
2018-10-06T09:34:25.958Z,18.04
2018-10-06T09:35:25.966Z,18.06
2018-10-06T09:37:26.003Z,18.12
2018-10-06T09:38:26.074Z,18.03
2018-10-06T09:39:26.308Z,18.00
2018-10-06T09:40:26.353Z,18.04
2018-10-06T09:41:26.191Z,18.06
2018-10-06T09:42:26.332Z,18.00
2018-10-06T09:43:26.260Z,18.00
2018-10-06T09:44:26.161Z,18.02
2018-10-06T09:45:26.196Z,18.07
2018-10-06T09:46:26.197Z,18.13
2018-10-06T09:47:26.220Z,18.18
2018-10-06T09:48:26.244Z,18.18
2018-10-06T09:49:26.258Z,18.21
2018-10-06T09:50:26.288Z,18.29
2018-10-06T09:51:26.304Z,18.25
2018-10-06T09:52:26.329Z,18.27
2018-10-06T09:53:26.359Z,18.21
2018-10-06T09:54:26.368Z,18.31
2018-10-06T09:55:26.397Z,18.36
2018-10-06T09:56:26.429Z,18.34
2018-10-06T09:57:26.487Z,18.29
2018-10-06T09:58:26.544Z,18.33
2018-10-06T09:59:26.536Z,18.36
2018-10-06T10:00:26.624Z,18.42
2018-10-06T10:01:26.522Z,18.40
2018-10-06T10:02:26.576Z,18.36
2018-10-06T10:03:26.696Z,18.43
2018-10-06T10:04:26.598Z,18.46
2018-10-06T10:05:26.811Z,18.44
2018-10-06T10:06:26.636Z,18.54
2018-10-06T10:07:26.646Z,18.49
2018-10-06T10:08:26.672Z,18.54
2018-10-06T10:09:26.743Z,18.57
2018-10-06T10:10:26.708Z,18.55
2018-10-06T10:11:26.742Z,18.59
2018-10-06T10:12:26.792Z,18.54
2018-10-06T10:13:26.776Z,18.55
2018-10-06T10:14:26.797Z,18.55
2018-10-06T10:15:26.899Z,18.59
2018-10-06T10:16:26.839Z,18.68
2018-10-06T10:17:26.972Z,18.65
2018-10-06T10:18:27.004Z,18.77
2018-10-06T10:19:26.906Z,18.73
2018-10-06T10:20:26.947Z,18.72
2018-10-06T10:21:26.950Z,18.67
2018-10-06T10:22:27.197Z,18.70
2018-10-06T10:23:27.033Z,18.65
2018-10-06T10:24:27.046Z,18.82
2018-10-06T10:25:27.024Z,18.80
2018-10-06T10:26:27.089Z,18.87
2018-10-06T10:27:27.080Z,18.82
2018-10-06T10:28:27.186Z,18.82
2018-10-06T10:29:27.123Z,18.82
2018-10-06T10:30:27.151Z,18.74
2018-10-06T10:31:27.161Z,18.87
2018-10-06T10:32:27.176Z,18.91
2018-10-06T10:33:27.243Z,18.90
2018-10-06T10:34:27.252Z,18.86
2018-10-06T10:35:27.274Z,18.86
2018-10-06T10:36:27.273Z,18.86
2018-10-06T10:37:27.392Z,18.86
2018-10-06T10:38:27.321Z,18.95
2018-10-06T10:39:27.486Z,18.99
2018-10-06T10:40:27.367Z,18.94
2018-10-06T10:41:27.378Z,18.90
2018-10-06T10:42:27.463Z,18.97
2018-10-06T10:43:27.426Z,19.01
2018-10-06T10:44:28.080Z,18.99
2018-10-06T10:45:27.468Z,19.06
2018-10-06T10:46:27.624Z,19.08
2018-10-06T10:47:27.513Z,19.01
2018-10-06T10:48:27.531Z,19.05
2018-10-06T10:49:27.628Z,19.08
2018-10-06T10:50:27.805Z,19.06
2018-10-06T10:51:27.595Z,19.10
2018-10-06T10:52:27.885Z,19.15
2018-10-06T10:53:27.769Z,19.06
2018-10-06T10:54:27.683Z,19.21
2018-10-06T10:55:27.688Z,19.28
2018-10-06T10:56:27.709Z,19.21
2018-10-06T10:57:27.744Z,19.13
2018-10-06T10:58:27.752Z,19.17
2018-10-06T10:59:27.799Z,19.20
2018-10-06T11:00:27.823Z,19.25
2018-10-06T11:01:27.834Z,19.28
2018-10-06T11:02:27.834Z,19.39
2018-10-06T11:03:27.867Z,19.36
2018-10-06T11:04:27.880Z,19.42
2018-10-06T11:05:27.912Z,19.43
2018-10-06T11:06:27.933Z,19.55
2018-10-06T11:07:27.956Z,19.66
2018-10-06T11:08:27.981Z,19.88
2018-10-06T11:09:28.004Z,19.90
2018-10-06T11:10:28.024Z,19.94
2018-10-06T11:11:28.052Z,20.02
2018-10-06T11:12:28.170Z,20.09
2018-10-06T11:13:28.092Z,20.24
2018-10-06T11:14:28.150Z,20.30
2018-10-06T11:15:28.142Z,20.47
2018-10-06T11:16:28.226Z,20.66
2018-10-06T11:17:28.216Z,20.61
2018-10-06T11:18:28.216Z,20.66
2018-10-06T11:19:28.243Z,20.65
2018-10-06T11:20:28.268Z,20.65
2018-10-06T11:21:28.291Z,20.56
2018-10-06T11:22:28.319Z,20.53
2018-10-06T11:23:28.352Z,20.62
2018-10-06T11:24:28.362Z,20.80
2018-10-06T11:25:28.395Z,21.39
2018-10-06T11:26:28.412Z,22.82
2018-10-06T11:27:28.457Z,24.38
2018-10-06T11:28:28.531Z,24.92
2018-10-06T11:29:28.535Z,25.53
2018-10-06T11:30:28.524Z,24.38
2018-10-06T11:31:28.542Z,23.08
2018-10-06T11:32:28.560Z,22.46
2018-10-06T11:33:28.589Z,21.79
2018-10-06T11:34:28.606Z,21.57
2018-10-06T11:35:28.637Z,21.32
2018-10-06T11:36:28.680Z,21.16
2018-10-06T11:37:28.710Z,21.08
2018-10-06T11:38:28.738Z,20.96
2018-10-06T11:39:28.753Z,20.86
2018-10-06T11:40:28.772Z,20.74
2018-10-06T11:41:28.782Z,20.68
2018-10-06T11:42:28.816Z,20.65
2018-10-06T11:43:28.836Z,20.62
2018-10-06T11:44:28.846Z,20.69
2018-10-06T11:45:28.887Z,20.56
2018-10-06T11:46:28.901Z,20.69
2018-10-06T11:47:29.059Z,20.62
2018-10-06T11:48:28.943Z,20.59
2018-10-06T11:49:28.973Z,20.62
2018-10-06T11:50:29.001Z,20.51
2018-10-06T11:51:29.022Z,20.50
2018-10-06T11:52:29.040Z,20.46
2018-10-06T11:53:29.069Z,20.56
2018-10-06T11:54:29.090Z,20.62
2018-10-06T11:55:29.114Z,20.53
2018-10-06T11:56:29.128Z,20.31
2018-10-06T11:57:29.160Z,20.33
2018-10-06T11:58:29.195Z,20.34
2018-10-06T11:59:29.226Z,20.27
2018-10-06T12:00:29.296Z,20.35
2018-10-06T12:01:29.257Z,20.35
2018-10-06T12:02:29.274Z,20.25
2018-10-06T12:03:29.308Z,20.23
2018-10-06T12:04:29.325Z,20.33
2018-10-06T12:05:29.346Z,20.50
2018-10-06T12:06:29.371Z,20.42
2018-10-06T12:07:29.399Z,20.41
2018-10-06T12:08:29.407Z,20.39
2018-10-06T12:09:29.441Z,20.39
2018-10-06T12:10:29.500Z,20.24
2018-10-06T12:11:29.485Z,20.25
2018-10-06T12:12:29.506Z,20.25
2018-10-06T12:13:29.545Z,20.21
2018-10-06T12:14:29.548Z,20.23
2018-10-06T12:15:29.572Z,20.25
2018-10-06T12:16:29.601Z,20.54
2018-10-06T12:17:29.617Z,20.47
2018-10-06T12:18:29.652Z,20.51
2018-10-06T12:19:29.659Z,20.56
2018-10-06T12:20:29.763Z,20.47
2018-10-06T12:21:29.706Z,20.49
2018-10-06T12:22:29.744Z,20.51
2018-10-06T12:23:29.759Z,20.46
2018-10-06T12:24:29.778Z,20.53
2018-10-06T12:25:29.805Z,20.59
2018-10-06T12:26:29.832Z,20.54
2018-10-06T12:27:29.884Z,20.49
2018-10-06T12:28:29.876Z,20.43
2018-10-06T12:29:29.905Z,20.46
2018-10-06T12:30:29.929Z,20.47
2018-10-06T12:31:29.950Z,20.58
2018-10-06T12:32:29.956Z,20.51
2018-10-06T12:33:29.979Z,20.39
2018-10-06T12:34:30.014Z,20.43
2018-10-06T12:35:30.161Z,20.34
2018-10-06T12:36:30.053Z,20.34
2018-10-06T12:37:30.080Z,20.47
2018-10-06T12:38:30.105Z,20.43
2018-10-06T12:39:30.125Z,20.43
2018-10-06T12:40:30.145Z,20.38
2018-10-06T12:41:30.170Z,20.42
2018-10-06T12:42:30.205Z,20.46
2018-10-06T12:43:30.226Z,20.42
2018-10-06T12:44:30.236Z,20.35
2018-10-06T12:45:30.253Z,20.43
2018-10-06T12:46:30.303Z,20.54
2018-10-06T12:47:30.306Z,20.59
2018-10-06T12:48:30.325Z,20.58
2018-10-06T12:49:30.343Z,20.46
2018-10-06T12:50:30.409Z,20.47
2018-10-06T12:51:30.462Z,20.38
2018-10-06T12:52:30.427Z,20.38
2018-10-06T12:53:30.451Z,20.43
2018-10-06T12:54:30.471Z,20.49
2018-10-06T12:55:30.494Z,20.47
2018-10-06T12:56:30.514Z,20.43
2018-10-06T12:57:30.582Z,20.41
2018-10-06T12:58:30.557Z,20.50